createdAt,value
2022-12-01T00:04:36.698Z,65401.22
2022-12-01T00:09:58.201Z,65406.22
2022-12-01T00:15:02.417Z,65377.22
2022-12-01T00:20:08.833Z,65359.25
2022-12-01T00:25:13.367Z,65322.63
2022-12-01T00:30:18.514Z,65335.72
2022-12-01T00:35:24.197Z,65382.75
2022-12-01T00:40:28.163Z,65381.16
2022-12-01T00:45:32.375Z,65374.78
2022-12-01T00:50:37.700Z,65441.59
2022-12-01T00:55:41.490Z,65336.88
2022-12-01T01:00:45.292Z,65339.53
2022-12-01T01:05:50.446Z,65361.38
2022-12-01T01:10:54.201Z,65476.25
2022-12-01T01:16:00.584Z,65416.78
2022-12-01T01:21:08.370Z,65373.94
2022-12-01T01:26:17.102Z,65432.75
2022-12-01T01:31:23.188Z,65408.13
2022-12-01T01:36:28.832Z,65414.63
2022-12-01T01:41:32.987Z,65429.00
2022-12-01T01:46:36.868Z,65369.91
2022-12-01T01:51:45.951Z,65351.69
2022-12-01T01:56:52.946Z,65345.41
2022-12-01T02:02:06.246Z,65391.00
2022-12-01T02:07:14.322Z,65307.59
2022-12-01T02:12:37.760Z,65331.88
2022-12-01T02:17:51.684Z,65322.50
2022-12-01T02:23:19.033Z,65324.97
2022-12-01T02:28:49.222Z,65369.69
2022-12-01T02:33:59.753Z,65316.44
2022-12-01T02:39:11.036Z,65330.50
2022-12-01T02:44:21.314Z,65315.47
2022-12-01T02:49:31.270Z,65282.19
2022-12-01T02:54:36.543Z,65316.00
2022-12-01T02:59:42.528Z,65352.75
2022-12-01T03:04:56.381Z,65291.75
2022-12-01T03:10:09.182Z,65311.22
2022-12-01T03:15:24.259Z,65348.06
2022-12-01T03:20:35.571Z,65357.56
2022-12-01T03:25:43.261Z,65318.56
2022-12-01T03:30:49.863Z,65314.53
2022-12-01T03:35:59.629Z,65329.88
2022-12-01T03:41:08.064Z,65275.78
2022-12-01T03:46:17.787Z,65313.88
2022-12-01T03:51:31.450Z,65263.44
2022-12-01T03:56:39.951Z,65280.38
2022-12-01T04:01:44.186Z,65266.00
2022-12-01T04:06:51.570Z,65313.44
2022-12-01T04:12:13.070Z,65282.06
2022-12-01T04:17:16.927Z,65295.25
2022-12-01T04:22:22.428Z,65296.22
2022-12-01T04:27:26.321Z,65327.94
2022-12-01T04:32:30.337Z,65365.44
2022-12-01T04:37:35.569Z,65327.94
2022-12-01T04:42:39.441Z,65287.28
2022-12-01T04:47:43.416Z,65270.34
2022-12-01T04:52:48.698Z,65262.69
2022-12-01T04:57:52.619Z,65295.91
2022-12-01T05:02:56.544Z,65288.78
2022-12-01T05:08:02.061Z,65271.22
2022-12-01T05:13:07.457Z,65259.63
2022-12-01T05:18:11.663Z,65259.63
2022-12-01T05:23:17.381Z,65261.44
2022-12-01T05:28:22.306Z,65278.34
2022-12-01T05:33:28.375Z,65280.47
2022-12-01T05:38:33.689Z,65242.19
2022-12-01T05:43:37.428Z,65248.66
2022-12-01T05:48:43.097Z,65242.69
2022-12-01T05:53:48.207Z,65223.66
2022-12-01T05:58:52.169Z,65233.53
2022-12-01T06:03:56.027Z,65230.47
2022-12-01T06:09:01.279Z,65229.91
2022-12-01T06:14:05.044Z,65272.81
2022-12-01T06:19:08.806Z,65245.25
2022-12-01T06:24:14.391Z,65224.00
2022-12-01T06:29:18.358Z,65241.84
2022-12-01T06:34:23.168Z,65273.97
2022-12-01T06:39:31.054Z,65289.59
2022-12-01T06:44:39.711Z,65276.75
2022-12-01T06:49:47.715Z,65269.09
2022-12-01T06:54:54.518Z,65274.09
2022-12-01T06:59:58.920Z,65245.88
2022-12-01T07:05:05.848Z,65349.03
2022-12-01T07:10:14.217Z,65271.31
2022-12-01T07:15:18.117Z,65289.59
2022-12-01T07:20:21.997Z,65254.72
2022-12-01T07:25:27.303Z,65273.44
2022-12-01T07:30:31.396Z,65262.38
2022-12-01T07:35:35.914Z,65323.47
2022-12-01T07:40:41.149Z,65318.56
2022-12-01T07:45:45.229Z,65346.47
2022-12-01T07:50:49.233Z,65383.31
2022-12-01T07:55:54.597Z,65298.13
2022-12-01T08:00:58.934Z,65295.38
2022-12-01T08:06:04.204Z,65396.53
2022-12-01T08:11:12.791Z,65350.19
2022-12-01T08:16:18.643Z,65428.91
2022-12-01T08:21:24.503Z,65360.94
2022-12-01T08:26:31.343Z,65357.97
2022-12-01T08:31:38.119Z,65414.09
2022-12-01T08:36:42.080Z,65319.84
2022-12-01T08:41:47.335Z,65280.47
2022-12-01T08:46:51.346Z,65341.75
2022-12-01T08:51:56.374Z,65356.47
2022-12-01T08:57:01.498Z,65264.06
2022-12-01T09:02:07.315Z,65298.38
2022-12-01T09:07:15.109Z,65400.16
2022-12-01T09:12:20.256Z,65395.88
2022-12-01T09:17:24.401Z,65389.69
2022-12-01T09:22:28.559Z,65414.63
2022-12-01T09:27:33.810Z,65378.41
2022-12-01T09:32:37.663Z,65431.69
2022-12-01T09:37:41.472Z,65392.78
2022-12-01T09:42:48.781Z,65345.41
2022-12-01T09:47:55.402Z,65389.69
2022-12-01T09:53:01.782Z,65351.16
2022-12-01T09:58:17.837Z,65330.50
2022-12-01T10:03:26.155Z,65302.81
2022-12-01T10:08:33.075Z,65339.44
2022-12-01T10:13:38.321Z,65340.69
2022-12-01T10:18:52.846Z,65362.88
2022-12-01T10:24:13.374Z,65347.97
2022-12-01T10:29:28.647Z,65334.53
2022-12-01T10:34:35.341Z,65303.78
2022-12-01T10:39:41.119Z,65287.28
2022-12-01T10:44:46.701Z,65305.78
2022-12-01T10:49:50.713Z,65381.06
2022-12-01T10:54:54.774Z,65403.34
2022-12-01T11:00:02.735Z,65437.97
2022-12-01T11:05:19.970Z,65436.16
2022-12-01T11:10:27.058Z,65369.47
2022-12-01T11:15:34.870Z,65366.28
2022-12-01T11:20:41.071Z,65413.66
2022-12-01T11:26:01.442Z,65461.06
2022-12-01T11:31:08.931Z,65414.75
2022-12-01T11:36:22.476Z,65369.34
2022-12-01T11:41:30.873Z,65455.75
2022-12-01T11:46:50.129Z,65455.22
2022-12-01T11:52:17.372Z,65429.97
2022-12-01T11:57:35.300Z,65396.94
2022-12-01T12:02:47.059Z,65418.91
2022-12-01T12:08:00.844Z,65396.94
2022-12-01T12:13:23.183Z,65399.41
2022-12-01T12:18:51.446Z,65444.91
2022-12-01T12:24:19.243Z,65456.63
2022-12-01T12:29:38.543Z,65410.91
2022-12-01T12:34:54.527Z,65384.78
2022-12-01T12:40:06.190Z,65363.09
2022-12-01T12:45:20.760Z,65418.91
2022-12-01T12:50:33.257Z,65393.41
2022-12-01T12:55:41.394Z,65336.25
2022-12-01T13:00:51.658Z,65334.75
2022-12-01T13:06:02.618Z,65275.16
2022-12-01T13:11:11.494Z,65280.03
2022-12-01T13:16:20.168Z,65352.84
2022-12-01T13:21:26.966Z,65333.69
2022-12-01T13:26:37.605Z,65379.91
2022-12-01T13:31:47.857Z,65348.16
2022-12-01T13:36:55.095Z,65343.91
2022-12-01T13:42:01.559Z,65368.81
2022-12-01T13:47:31.795Z,65324.53
2022-12-01T13:52:49.816Z,65309.09
2022-12-01T13:58:42.190Z,65327.84
2022-12-01T14:03:53.686Z,65305.06
2022-12-01T14:09:02.610Z,65311.22
2022-12-01T14:14:14.261Z,65293.56
2022-12-01T14:19:34.202Z,65255.47
2022-12-01T14:24:43.697Z,65261.75
2022-12-01T14:29:47.653Z,65335.06
2022-12-01T14:35:13.900Z,65340.69
2022-12-01T14:40:26.409Z,65344.22
2022-12-01T14:45:36.613Z,65282.50
2022-12-01T14:50:46.823Z,65281.00
2022-12-01T14:55:57.451Z,65233.53
2022-12-01T15:01:07.032Z,65276.44
2022-12-01T15:06:16.995Z,65270.88
2022-12-01T15:11:25.622Z,65268.75
2022-12-01T15:16:32.255Z,65279.84
2022-12-01T15:21:36.185Z,65341.56
2022-12-01T15:26:48.411Z,65327.31
2022-12-01T15:31:55.050Z,65295.91
2022-12-01T15:37:00.320Z,65299.00
2022-12-01T15:42:06.608Z,65400.78
2022-12-01T15:47:32.663Z,65285.78
2022-12-01T15:52:43.727Z,65366.50
2022-12-01T15:57:49.084Z,65312.81
2022-12-01T16:02:54.660Z,65276.84
2022-12-01T16:08:13.240Z,65303.78
2022-12-01T16:13:40.178Z,65265.03
2022-12-01T16:18:53.885Z,65233.97
2022-12-01T16:24:02.581Z,65237.72
2022-12-01T16:29:19.329Z,65222.59
2022-12-01T16:34:45.209Z,65218.66
2022-12-01T16:39:49.417Z,65248.53
2022-12-01T16:44:54.808Z,65278.13
2022-12-01T16:49:58.877Z,65244.81
2022-12-01T16:55:02.907Z,65219.72
2022-12-01T17:00:11.111Z,65249.41
2022-12-01T17:05:15.155Z,65278.34
2022-12-01T17:10:19.261Z,65257.16
2022-12-01T17:15:24.725Z,65256.00
2022-12-01T17:20:28.741Z,65328.81
2022-12-01T17:25:33.146Z,65260.47
2022-12-01T17:30:39.227Z,65259.63
2022-12-01T17:35:43.189Z,65291.09
2022-12-01T17:40:47.248Z,65318.03
2022-12-01T17:45:52.937Z,65321.88
2022-12-01T17:50:56.816Z,65376.28
2022-12-01T17:56:00.689Z,65342.53
2022-12-01T18:01:06.960Z,65309.63
2022-12-01T18:06:10.963Z,65247.38
2022-12-01T18:11:17.216Z,65249.50
2022-12-01T18:16:25.980Z,65263.97
2022-12-01T18:21:48.473Z,65262.91
2022-12-01T18:26:55.884Z,65221.31
2022-12-01T18:32:01.647Z,65224.50
2022-12-01T18:37:06.011Z,65245.78
2022-12-01T18:42:10.042Z,65274.94
2022-12-01T18:47:15.181Z,65269.19
2022-12-01T18:52:19.010Z,65254.50
2022-12-01T18:57:22.763Z,65234.19
2022-12-01T19:02:27.983Z,65230.88
2022-12-01T19:07:31.994Z,65224.09
2022-12-01T19:12:40.842Z,65214.28
2022-12-01T19:17:46.479Z,65226.63
2022-12-01T19:22:50.780Z,65180.50
2022-12-01T19:27:54.527Z,65196.00
2022-12-01T19:32:59.986Z,65209.72
2022-12-01T19:38:03.942Z,65217.06
2022-12-01T19:43:07.716Z,65211.31
2022-12-01T19:48:13.115Z,65220.25
2022-12-01T19:53:16.870Z,65273.56
2022-12-01T19:58:20.662Z,65257.81
2022-12-01T20:03:26.118Z,65164.97
2022-12-01T20:08:32.833Z,65165.16
2022-12-01T20:13:40.933Z,65171.44
2022-12-01T20:18:45.964Z,65170.16
2022-12-01T20:23:51.888Z,65128.94
2022-12-01T20:28:56.024Z,65147.41
2022-12-01T20:34:04.164Z,65149.22
2022-12-01T20:39:09.512Z,65251.72
2022-12-01T20:44:14.792Z,65328.81
2022-12-01T20:49:21.275Z,65228.75
2022-12-01T20:54:28.453Z,65137.00
2022-12-01T20:59:33.535Z,65220.34
2022-12-01T21:04:39.170Z,65171.56
2022-12-01T21:09:45.032Z,65216.84
2022-12-01T21:14:50.792Z,65298.56
2022-12-01T21:20:01.743Z,65201.22
2022-12-01T21:25:15.493Z,65242.59
2022-12-01T21:30:20.974Z,65334.66
2022-12-01T21:35:26.634Z,65324.22
2022-12-01T21:40:32.656Z,65192.19
2022-12-01T21:45:36.766Z,65161.22
2022-12-01T21:50:42.631Z,65209.84
2022-12-01T21:55:49.326Z,65136.88
2022-12-01T22:00:53.735Z,65132.22
2022-12-01T22:06:28.669Z,65167.19
2022-12-01T22:11:32.635Z,65157.09
2022-12-01T22:16:37.932Z,65127.97
2022-12-01T22:21:46.828Z,65111.38
2022-12-01T22:26:53.393Z,65217.28
2022-12-01T22:32:31.003Z,65271.84
2022-12-01T22:37:41.675Z,65210.16
2022-12-01T22:42:45.438Z,65192.06
2022-12-01T22:47:49.370Z,65152.94
2022-12-01T22:52:56.425Z,65128.59
2022-12-01T22:58:00.863Z,65134.03
2022-12-01T23:03:09.031Z,65074.81
2022-12-01T23:08:21.197Z,65114.91
2022-12-01T23:13:25.955Z,65128.81
2022-12-01T23:18:32.038Z,65226.63
2022-12-01T23:23:38.266Z,65238.88
2022-12-01T23:28:42.099Z,65177.94
2022-12-01T23:33:46.002Z,65163.91
2022-12-01T23:38:54.168Z,65168.56
2022-12-01T23:44:01.761Z,65209.72
2022-12-01T23:49:12.165Z,65071.97
2022-12-01T23:54:20.724Z,65107.56
2022-12-01T23:59:25.258Z,65121.91
